createdAt,value
2022-10-22T00:03:48.871Z,60.35
2022-10-22T00:08:51.979Z,60.41
2022-10-22T00:13:55.922Z,60.13
2022-10-22T00:18:58.939Z,60.30
2022-10-22T00:24:02.530Z,60.28
2022-10-22T00:29:05.489Z,60.76
2022-10-22T00:34:08.396Z,60.59
2022-10-22T00:39:13.222Z,60.92
2022-10-22T00:44:53.526Z,60.94
2022-10-22T00:50:01.214Z,61.04
2022-10-22T00:55:05.710Z,61.29
2022-10-22T01:00:09.816Z,61.22
2022-10-22T01:05:13.358Z,61.12
2022-10-22T01:10:38.924Z,61.13
2022-10-22T01:15:54.535Z,61.23
2022-10-22T01:21:23.317Z,61.29
2022-10-22T01:26:29.274Z,61.04
2022-10-22T01:31:38.247Z,61.12
2022-10-22T01:36:42.976Z,61.56
2022-10-22T01:41:46.640Z,61.18
2022-10-22T01:46:54.474Z,61.53
2022-10-22T01:52:12.756Z,61.61
2022-10-22T01:57:24.711Z,61.34
2022-10-22T02:02:40.774Z,61.48
2022-10-22T02:07:57.777Z,61.54
2022-10-22T02:13:02.494Z,61.71
2022-10-22T02:18:08.877Z,61.83
2022-10-22T02:23:12.492Z,61.54
2022-10-22T02:28:29.536Z,61.63
2022-10-22T02:33:37.841Z,62.22
2022-10-22T02:38:42.259Z,62.02
2022-10-22T02:43:52.214Z,62.06
2022-10-22T02:48:55.545Z,62.52
2022-10-22T02:53:58.652Z,62.50
2022-10-22T02:59:01.587Z,61.85
2022-10-22T03:04:05.202Z,61.69
2022-10-22T03:09:08.178Z,61.71
2022-10-22T03:14:11.353Z,61.51
2022-10-22T03:19:14.570Z,61.71
2022-10-22T03:24:26.217Z,61.87
2022-10-22T03:29:31.932Z,61.93
2022-10-22T03:34:34.732Z,62.10
2022-10-22T03:39:38.149Z,62.08
2022-10-22T03:44:41.186Z,62.39
2022-10-22T03:49:44.119Z,62.10
2022-10-22T03:54:47.723Z,62.39
2022-10-22T03:59:51.504Z,62.66
2022-10-22T04:04:54.505Z,62.97
2022-10-22T04:09:57.337Z,63.16
2022-10-22T04:15:00.217Z,62.61
2022-10-22T04:20:04.844Z,62.68
2022-10-22T04:25:08.595Z,62.85
2022-10-22T04:30:12.098Z,62.87
2022-10-22T04:35:15.176Z,63.22
2022-10-22T04:40:18.339Z,63.23
2022-10-22T04:45:21.266Z,62.88
2022-10-22T04:50:24.187Z,62.82
2022-10-22T04:55:28.562Z,62.90
2022-10-22T05:00:31.414Z,62.70
2022-10-22T05:05:34.297Z,63.26
2022-10-22T05:10:37.361Z,63.30
2022-10-22T05:15:40.945Z,63.02
2022-10-22T05:20:43.864Z,62.84
2022-10-22T05:25:46.923Z,62.75
2022-10-22T05:30:57.854Z,62.99
2022-10-22T05:36:02.657Z,62.71
2022-10-22T05:41:10.071Z,62.58
2022-10-22T05:46:19.842Z,62.44
2022-10-22T05:51:27.129Z,62.18
2022-10-22T05:56:34.275Z,61.95
2022-10-22T06:01:38.809Z,62.21
2022-10-22T06:06:47.659Z,62.04
2022-10-22T06:11:51.194Z,62.47
2022-10-22T06:16:54.616Z,62.46
2022-10-22T06:21:57.535Z,62.11
2022-10-22T06:27:00.466Z,62.52
2022-10-22T06:32:03.551Z,62.91
2022-10-22T06:37:06.476Z,62.89
2022-10-22T06:42:09.508Z,62.74
2022-10-22T06:47:12.564Z,62.78
2022-10-22T06:52:15.888Z,62.70
2022-10-22T06:57:19.008Z,62.55
2022-10-22T07:02:21.937Z,62.39
2022-10-22T07:07:24.865Z,62.21
2022-10-22T07:12:27.811Z,61.67
2022-10-22T07:17:30.834Z,61.98
2022-10-22T07:22:34.041Z,61.73
2022-10-22T07:27:38.044Z,61.48
2022-10-22T07:32:41.225Z,61.56
2022-10-22T07:37:44.156Z,61.43
2022-10-22T07:42:47.220Z,61.10
2022-10-22T07:47:50.573Z,60.94
2022-10-22T07:52:56.032Z,60.68
2022-10-22T07:58:01.083Z,60.50
2022-10-22T08:03:04.377Z,60.34
2022-10-22T08:08:07.450Z,60.34
2022-10-22T08:13:10.916Z,60.52
2022-10-22T08:18:15.071Z,60.42
2022-10-22T08:23:18.002Z,60.46
2022-10-22T08:28:22.109Z,60.46
2022-10-22T08:33:25.470Z,60.19
2022-10-22T08:38:28.574Z,59.98
2022-10-22T08:43:37.315Z,59.96
2022-10-22T08:48:48.282Z,59.82
2022-10-22T08:54:16.522Z,59.79
2022-10-22T08:59:41.781Z,59.38
2022-10-22T09:04:50.875Z,59.20
2022-10-22T09:09:55.757Z,59.25
2022-10-22T09:14:59.129Z,58.92
2022-10-22T09:20:16.142Z,58.89
2022-10-22T09:25:23.809Z,58.80
2022-10-22T09:30:29.951Z,58.81
2022-10-22T09:36:03.689Z,58.80
2022-10-22T09:41:09.140Z,58.78
2022-10-22T09:46:21.637Z,58.53
2022-10-22T09:51:55.315Z,58.27
2022-10-22T09:57:05.257Z,58.26
2022-10-22T10:02:20.261Z,58.11
2022-10-22T10:07:34.529Z,58.11
2022-10-22T10:12:57.970Z,58.16
2022-10-22T10:18:39.148Z,57.94
2022-10-22T10:23:58.670Z,58.04
2022-10-22T10:29:16.564Z,57.95
2022-10-22T10:34:35.737Z,58.04
2022-10-22T10:39:59.334Z,57.94
2022-10-22T10:45:18.085Z,57.72
2022-10-22T10:50:50.430Z,57.86
2022-10-22T10:56:08.674Z,58.00
2022-10-22T11:01:23.772Z,58.04
2022-10-22T11:06:30.255Z,58.10
2022-10-22T11:11:40.686Z,58.33
2022-10-22T11:16:49.878Z,58.35
2022-10-22T11:22:26.510Z,58.73
2022-10-22T11:27:39.939Z,58.87
2022-10-22T11:32:47.575Z,58.88
2022-10-22T11:37:52.092Z,58.98
2022-10-22T11:43:03.629Z,59.04
2022-10-22T11:48:07.406Z,59.04
2022-10-22T11:53:13.432Z,59.34
2022-10-22T11:58:28.161Z,59.62
2022-10-22T12:03:31.077Z,59.61
2022-10-22T12:08:34.703Z,59.79
2022-10-22T12:14:01.609Z,60.30
2022-10-22T12:19:15.538Z,60.58
2022-10-22T12:24:23.261Z,61.12
2022-10-22T12:29:27.756Z,61.45
2022-10-22T12:34:30.704Z,61.63
2022-10-22T12:39:35.578Z,61.50
2022-10-22T12:44:38.488Z,61.66
2022-10-22T12:49:44.530Z,61.80
2022-10-22T12:54:52.518Z,61.79
2022-10-22T12:59:55.514Z,61.96
2022-10-22T13:05:21.660Z,62.05
2022-10-22T13:10:32.482Z,62.15
2022-10-22T13:15:38.744Z,62.18
2022-10-22T13:20:56.414Z,62.54
2022-10-22T13:26:18.034Z,62.65
2022-10-22T13:31:32.260Z,62.73
2022-10-22T13:36:36.687Z,62.88
2022-10-22T13:46:48.537Z,62.96
2022-10-22T13:51:52.761Z,63.14
2022-10-22T13:56:56.103Z,63.28
2022-10-22T14:02:06.090Z,63.32
2022-10-22T14:07:14.458Z,63.30
2022-10-22T14:12:17.494Z,63.66
2022-10-22T14:17:20.541Z,63.77
2022-10-22T14:22:27.185Z,63.97
2022-10-22T14:27:30.157Z,63.93
2022-10-22T14:32:33.147Z,64.13
2022-10-22T14:37:36.129Z,64.27
2022-10-22T14:42:45.491Z,64.01
2022-10-22T14:47:50.487Z,64.11
2022-10-22T14:52:53.740Z,64.10
2022-10-22T14:57:58.051Z,64.15
2022-10-22T15:03:03.421Z,64.41
2022-10-22T15:08:07.682Z,64.46
2022-10-22T15:13:11.018Z,64.51
2022-10-22T15:18:13.952Z,64.64
2022-10-22T15:23:16.931Z,64.85
2022-10-22T15:28:21.221Z,64.97
2022-10-22T15:33:25.039Z,65.11
2022-10-22T15:43:34.510Z,65.45
2022-10-22T15:48:37.482Z,65.47
2022-10-22T15:53:40.494Z,65.50
2022-10-22T15:58:43.394Z,65.81
2022-10-22T16:03:46.502Z,65.96
2022-10-22T16:08:49.437Z,66.19
2022-10-22T16:13:57.060Z,66.27
2022-10-22T16:19:00.591Z,66.27
2022-10-22T16:24:06.294Z,66.27
2022-10-22T16:29:12.557Z,66.48
2022-10-22T16:34:15.494Z,66.57
2022-10-22T16:39:18.464Z,67.27
2022-10-22T16:44:21.380Z,67.06
2022-10-22T16:49:24.425Z,66.97
2022-10-22T16:54:27.673Z,66.91
2022-10-22T16:59:30.591Z,66.74
2022-10-22T17:04:34.577Z,66.85
2022-10-22T17:09:37.541Z,67.19
2022-10-22T17:14:40.845Z,67.28
2022-10-22T17:19:43.806Z,67.35
2022-10-22T17:24:46.672Z,67.37
2022-10-22T17:29:49.834Z,67.24
2022-10-22T17:34:52.789Z,67.44
2022-10-22T17:39:55.625Z,67.69
2022-10-22T17:44:58.491Z,67.57
2022-10-22T17:50:01.387Z,67.51
2022-10-22T17:55:04.695Z,67.58
2022-10-22T18:00:08.356Z,67.77
2022-10-22T18:05:12.281Z,67.77
2022-10-22T18:10:15.276Z,67.74
2022-10-22T18:15:18.322Z,67.95
2022-10-22T18:20:21.306Z,68.09
2022-10-22T18:25:24.590Z,68.11
2022-10-22T18:30:27.848Z,68.45
2022-10-22T18:35:32.432Z,68.43
2022-10-22T18:40:36.225Z,68.47
2022-10-22T18:45:46.929Z,68.60
2022-10-22T18:51:00.159Z,68.61
2022-10-22T18:56:08.035Z,68.69
2022-10-22T19:01:14.075Z,68.71
2022-10-22T19:06:24.354Z,68.80
2022-10-22T19:11:27.929Z,68.75
2022-10-22T19:16:31.120Z,69.01
2022-10-22T19:21:36.635Z,69.18
2022-10-22T19:26:39.809Z,69.19
2022-10-22T19:31:43.096Z,69.06
2022-10-22T19:36:46.265Z,69.06
2022-10-22T19:41:49.523Z,69.11
2022-10-22T19:46:52.461Z,69.23
2022-10-22T19:51:55.350Z,69.04
2022-10-22T19:56:58.294Z,68.96
2022-10-22T20:02:01.257Z,69.24
2022-10-22T20:07:06.101Z,69.31
2022-10-22T20:12:09.114Z,69.24
2022-10-22T20:17:12.320Z,69.33
2022-10-22T20:22:17.980Z,69.53
2022-10-22T20:27:22.143Z,69.39
2022-10-22T20:32:27.226Z,69.37
2022-10-22T20:37:30.083Z,69.37
2022-10-22T20:42:33.068Z,69.45
2022-10-22T20:47:50.817Z,69.64
2022-10-22T20:52:54.906Z,69.73
2022-10-22T20:57:57.926Z,69.46
2022-10-22T21:03:00.809Z,69.48
2022-10-22T21:08:05.225Z,69.68
2022-10-22T21:13:08.394Z,69.67
2022-10-22T21:18:11.532Z,69.70
2022-10-22T21:23:14.430Z,69.73
2022-10-22T21:28:17.471Z,69.79
2022-10-22T21:33:21.389Z,69.94
2022-10-22T21:38:25.096Z,70.06
2022-10-22T21:43:28.006Z,70.09
2022-10-22T21:48:31.020Z,70.01
2022-10-22T21:53:34.167Z,70.06
2022-10-22T21:58:37.194Z,70.08
2022-10-22T22:03:45.510Z,70.01
2022-10-22T22:08:49.095Z,69.80
2022-10-22T22:13:53.479Z,69.79
2022-10-22T22:24:09.100Z,69.77
2022-10-22T22:29:12.024Z,69.63
2022-10-22T22:34:16.922Z,69.60
2022-10-22T22:39:22.834Z,69.59
2022-10-22T22:44:26.087Z,69.62
2022-10-22T22:49:29.012Z,69.62
2022-10-22T22:54:32.150Z,69.53
2022-10-22T22:59:35.076Z,69.49
2022-10-22T23:04:38.010Z,69.59
2022-10-22T23:09:40.946Z,69.59
2022-10-22T23:14:43.930Z,69.55
2022-10-22T23:19:47.091Z,69.34
2022-10-22T23:24:50.028Z,69.27
2022-10-22T23:29:53.180Z,69.37
2022-10-22T23:34:56.122Z,69.31
2022-10-22T23:39:59.076Z,69.31
2022-10-22T23:45:02.206Z,69.37
2022-10-22T23:50:05.370Z,69.34
2022-10-22T23:55:08.789Z,69.47
